createdAt,value
2018-10-12T00:01:50.570Z,7.80
2018-10-12T00:04:19.523Z,7.70
2018-10-12T00:06:48.468Z,8.10
2018-10-12T00:09:17.395Z,8.23
2018-10-12T00:11:46.371Z,7.27
2018-10-12T00:14:15.294Z,7.30
2018-10-12T00:16:44.266Z,7.73
2018-10-12T00:19:13.186Z,6.80
2018-10-12T00:21:42.166Z,7.97
2018-10-12T00:24:11.213Z,6.67
2018-10-12T00:26:40.193Z,7.63
2018-10-12T00:29:09.126Z,7.53
2018-10-12T00:31:38.094Z,8.93
2018-10-12T00:34:07.030Z,7.63
2018-10-12T00:36:36.002Z,7.30
2018-10-12T00:39:06.174Z,7.43
2018-10-12T00:41:35.210Z,7.30
2018-10-12T00:44:04.118Z,7.57
2018-10-12T00:46:33.176Z,7.30
2018-10-12T00:49:02.082Z,7.20
2018-10-12T00:51:31.046Z,6.70
2018-10-12T00:53:59.945Z,6.93
2018-10-12T00:56:28.928Z,7.10
2018-10-12T00:58:57.834Z,6.20
2018-10-12T01:01:26.774Z,6.70
2018-10-12T01:03:55.686Z,7.70
2018-10-12T01:06:24.665Z,6.77
2018-10-12T01:08:53.605Z,7.90
2018-10-12T01:11:22.520Z,6.87
2018-10-12T01:13:51.488Z,6.77
2018-10-12T01:16:20.381Z,6.90
2018-10-12T01:18:49.961Z,7.00
2018-10-12T01:21:18.882Z,7.50
2018-10-12T01:23:47.854Z,7.90
2018-10-12T01:26:16.833Z,7.97
2018-10-12T01:28:50.205Z,7.83
2018-10-12T01:31:19.582Z,6.80
2018-10-12T01:33:48.565Z,7.10
2018-10-12T01:36:17.474Z,7.80
2018-10-12T01:38:46.602Z,7.80
2018-10-12T01:41:15.526Z,7.90
2018-10-12T01:43:44.529Z,8.20
2018-10-12T01:46:13.458Z,7.47
2018-10-12T01:48:42.432Z,7.37
2018-10-12T01:51:11.333Z,7.10
2018-10-12T01:53:40.285Z,6.80
2018-10-12T01:56:09.222Z,6.00
2018-10-12T01:58:38.200Z,7.97
2018-10-12T02:01:07.326Z,7.50
2018-10-12T02:03:36.265Z,7.70
2018-10-12T02:06:05.178Z,7.10
2018-10-12T02:08:34.157Z,6.60
2018-10-12T02:11:03.110Z,8.13
2018-10-12T02:13:32.058Z,6.97
2018-10-12T02:16:00.986Z,6.77
2018-10-12T02:18:29.899Z,8.30
2018-10-12T02:20:58.877Z,8.47
2018-10-12T02:23:27.804Z,7.47
2018-10-12T02:25:56.782Z,8.10
2018-10-12T02:28:25.714Z,8.30
2018-10-12T02:30:54.678Z,8.67
2018-10-12T02:33:23.608Z,8.27
2018-10-12T02:35:52.562Z,7.27
2018-10-12T02:38:21.606Z,7.90
2018-10-12T02:40:50.565Z,7.90
2018-10-12T02:43:19.488Z,7.23
2018-10-12T02:45:48.556Z,6.60
2018-10-12T02:48:17.477Z,7.27
2018-10-12T02:50:46.443Z,8.23
2018-10-12T02:53:15.394Z,7.77
2018-10-12T02:55:44.413Z,7.20
2018-10-12T02:58:13.330Z,9.73
2018-10-12T03:00:42.282Z,8.90
2018-10-12T03:03:11.206Z,7.17
2018-10-12T03:05:40.159Z,7.43
2018-10-12T03:08:09.097Z,7.87
2018-10-12T03:10:38.066Z,6.67
2018-10-12T03:13:07.022Z,7.93
2018-10-12T03:15:36.002Z,8.27
2018-10-12T03:18:04.929Z,7.33
2018-10-12T03:20:33.912Z,7.80
2018-10-12T03:23:02.834Z,6.90
2018-10-12T03:25:31.844Z,8.37
2018-10-12T03:28:11.764Z,6.87
2018-10-12T03:30:40.726Z,8.90
2018-10-12T03:33:09.689Z,6.90
2018-10-12T03:35:38.705Z,9.00
2018-10-12T03:38:07.666Z,7.17
2018-10-12T03:40:36.733Z,8.03
2018-10-12T03:43:05.667Z,7.77
2018-10-12T03:45:34.683Z,7.80
2018-10-12T03:48:03.580Z,7.60
2018-10-12T03:50:32.527Z,8.33
2018-10-12T03:53:01.515Z,8.53
2018-10-12T03:55:30.413Z,7.90
2018-10-12T03:57:59.385Z,7.60
2018-10-12T04:00:28.414Z,6.70
2018-10-12T04:02:57.371Z,6.43
2018-10-12T04:05:26.366Z,8.20
2018-10-12T04:07:55.347Z,7.87
2018-10-12T04:10:24.271Z,8.03
2018-10-12T04:12:53.346Z,8.10
2018-10-12T04:15:22.251Z,7.63
2018-10-12T04:17:51.255Z,7.07
2018-10-12T04:20:20.226Z,8.70
2018-10-12T04:22:49.237Z,7.93
2018-10-12T04:25:18.153Z,7.37
2018-10-12T04:27:47.157Z,7.17
2018-10-12T04:30:16.097Z,8.00
2018-10-12T04:32:45.086Z,8.10
2018-10-12T04:35:14.010Z,7.63
2018-10-12T04:37:42.991Z,7.63
2018-10-12T04:41:18.423Z,7.87
2018-10-12T04:43:48.695Z,7.57
2018-10-12T04:46:20.521Z,8.10
2018-10-12T04:48:50.639Z,7.77
2018-10-12T04:51:24.336Z,6.80
2018-10-12T04:53:53.479Z,7.83
2018-10-12T04:56:22.766Z,6.70
2018-10-12T04:58:51.736Z,6.40
2018-10-12T05:01:20.713Z,7.33
2018-10-12T05:03:49.698Z,7.80
2018-10-12T05:06:18.671Z,7.87
2018-10-12T05:08:47.643Z,9.03
2018-10-12T05:11:16.628Z,6.17
2018-10-12T05:13:45.619Z,7.40
2018-10-12T05:16:14.555Z,6.77
2018-10-12T05:18:43.563Z,6.37
2018-10-12T05:21:12.475Z,7.47
2018-10-12T05:23:41.445Z,6.70
2018-10-12T05:26:10.426Z,6.73
2018-10-12T05:28:39.698Z,6.70
2018-10-12T05:31:08.927Z,8.60
2018-10-12T05:33:37.941Z,8.60
2018-10-12T05:36:07.049Z,7.93
2018-10-12T05:38:36.017Z,8.33
2018-10-12T05:41:04.958Z,6.90
2018-10-12T05:43:34.044Z,6.60
2018-10-12T05:46:02.959Z,7.33
2018-10-12T05:48:42.853Z,7.60
2018-10-12T05:51:13.118Z,7.30
2018-10-12T05:53:42.347Z,8.73
2018-10-12T05:56:12.126Z,8.10
2018-10-12T05:58:41.118Z,7.77
2018-10-12T06:01:10.151Z,6.50
2018-10-12T06:03:39.128Z,7.13
2018-10-12T06:06:08.367Z,7.27
2018-10-12T06:08:37.822Z,6.93
2018-10-12T06:11:06.932Z,6.30
2018-10-12T06:13:35.935Z,6.73
2018-10-12T06:16:04.957Z,6.83
2018-10-12T06:18:33.935Z,8.20
2018-10-12T06:21:02.951Z,7.67
2018-10-12T06:23:31.890Z,8.67
2018-10-12T06:26:00.895Z,8.60
2018-10-12T06:28:29.946Z,8.13
2018-10-12T06:30:58.909Z,7.27
2018-10-12T06:33:27.857Z,8.57
2018-10-12T06:35:56.834Z,9.27
2018-10-12T06:38:25.909Z,8.70
2018-10-12T06:40:55.000Z,8.37
2018-10-12T06:43:24.103Z,8.73
2018-10-12T06:45:53.088Z,8.60
2018-10-12T06:48:22.147Z,7.97
2018-10-12T06:50:51.166Z,7.73
2018-10-12T06:53:20.126Z,8.67
2018-10-12T06:55:49.096Z,7.70
2018-10-12T06:58:18.019Z,7.17
2018-10-12T07:00:46.986Z,7.10
2018-10-12T07:03:15.983Z,7.50
2018-10-12T07:05:45.062Z,7.30
2018-10-12T07:08:13.966Z,7.60
2018-10-12T07:10:42.940Z,6.23
2018-10-12T07:13:11.849Z,7.90
2018-10-12T07:15:40.806Z,7.30
2018-10-12T07:18:09.779Z,8.60
2018-10-12T07:20:38.813Z,7.57
2018-10-12T07:23:07.970Z,8.30
2018-10-12T07:25:37.106Z,8.33
2018-10-12T07:28:06.042Z,8.70
2018-10-12T07:30:35.034Z,8.83
2018-10-12T07:33:03.946Z,8.70
2018-10-12T07:35:32.930Z,7.60
2018-10-12T07:38:01.837Z,7.80
2018-10-12T07:40:30.839Z,8.00
2018-10-12T07:42:59.779Z,9.47
2018-10-12T07:45:28.698Z,8.10
2018-10-12T07:47:58.045Z,8.63
2018-10-12T07:50:27.060Z,8.73
2018-10-12T07:52:56.002Z,8.90
2018-10-12T07:55:24.965Z,9.40
2018-10-12T07:57:53.941Z,8.60
2018-10-12T08:00:23.247Z,8.80
2018-10-12T08:02:52.392Z,7.80
2018-10-12T08:05:21.342Z,7.33
2018-10-12T08:07:50.327Z,8.20
2018-10-12T08:10:19.275Z,8.27
2018-10-12T08:12:48.251Z,8.67
2018-10-12T08:15:17.158Z,8.07
2018-10-12T08:17:46.116Z,9.17
2018-10-12T08:20:15.181Z,9.50
2018-10-12T08:22:44.281Z,8.40
2018-10-12T08:25:13.218Z,8.93
2018-10-12T08:27:42.217Z,8.60
2018-10-12T08:30:11.292Z,9.10
2018-10-12T08:32:40.270Z,8.53
2018-10-12T08:35:09.327Z,9.87
2018-10-12T08:37:38.310Z,9.30
2018-10-12T08:40:07.478Z,8.30
2018-10-12T08:42:36.579Z,8.43
2018-10-12T08:45:05.498Z,8.00
2018-10-12T08:47:34.518Z,7.50
2018-10-12T08:50:03.458Z,6.50
2018-10-12T08:52:32.442Z,6.13
2018-10-12T08:55:01.438Z,5.97
2018-10-12T08:57:30.502Z,7.70
2018-10-12T08:59:59.459Z,8.03
2018-10-12T09:02:28.460Z,6.10
2018-10-12T09:04:57.426Z,6.77
2018-10-12T09:07:26.429Z,6.17
2018-10-12T09:09:55.467Z,5.93
2018-10-12T09:12:24.418Z,6.00
2018-10-12T09:14:53.466Z,5.90
2018-10-12T09:17:22.506Z,6.80
2018-10-12T09:19:51.497Z,6.10
2018-10-12T09:22:20.498Z,6.10
2018-10-12T09:24:49.450Z,5.40
2018-10-12T09:27:18.469Z,6.43
2018-10-12T09:29:47.434Z,4.87
2018-10-12T09:32:16.496Z,6.40
2018-10-12T09:34:45.547Z,6.37
2018-10-12T09:37:14.591Z,5.20
2018-10-12T09:39:43.618Z,5.97
2018-10-12T09:42:12.518Z,5.40
2018-10-12T09:44:41.490Z,4.97
2018-10-12T09:47:10.525Z,4.63
2018-10-12T09:49:39.666Z,4.50
2018-10-12T09:52:09.658Z,3.53
2018-10-12T09:54:38.633Z,3.90
2018-10-12T09:57:13.303Z,4.00
2018-10-12T09:59:42.520Z,3.47
2018-10-12T10:02:16.753Z,4.10
2018-10-12T10:04:46.022Z,3.97
2018-10-12T10:07:14.943Z,3.10
2018-10-12T10:09:43.890Z,3.67
2018-10-12T10:12:12.970Z,3.37
2018-10-12T10:14:41.983Z,3.97
2018-10-12T10:17:10.906Z,3.50
2018-10-12T10:19:39.874Z,3.30
2018-10-12T10:22:08.785Z,3.90
2018-10-12T10:24:37.714Z,4.67
2018-10-12T10:27:06.819Z,3.80
2018-10-12T10:29:35.767Z,4.20
2018-10-12T10:32:04.773Z,4.30
2018-10-12T10:34:33.751Z,3.90
2018-10-12T10:37:02.723Z,3.77
2018-10-12T10:39:31.619Z,4.50
2018-10-12T10:42:00.599Z,3.67
2018-10-12T10:44:29.599Z,3.90
2018-10-12T10:46:58.626Z,4.10
2018-10-12T10:49:27.562Z,4.20
2018-10-12T10:51:56.510Z,4.03
2018-10-12T10:54:25.419Z,4.03
2018-10-12T10:56:58.491Z,3.23
2018-10-12T10:59:27.470Z,3.33
2018-10-12T11:01:56.497Z,4.50
2018-10-12T11:04:25.398Z,4.00
2018-10-12T11:06:54.388Z,3.97
2018-10-12T11:09:23.287Z,3.10
2018-10-12T11:11:52.227Z,3.80
2018-10-12T11:14:21.182Z,3.70
2018-10-12T11:16:50.123Z,3.50
2018-10-12T11:19:19.250Z,4.43
2018-10-12T11:21:48.290Z,4.40
2018-10-12T11:24:17.216Z,4.70
2018-10-12T11:26:46.284Z,4.80
2018-10-12T11:29:15.205Z,4.87
2018-10-12T11:31:44.185Z,4.50
2018-10-12T11:34:13.088Z,3.90
2018-10-12T11:36:42.068Z,4.27
2018-10-12T11:39:13.816Z,4.30
2018-10-12T11:41:42.778Z,4.67
2018-10-12T11:44:11.742Z,4.57
2018-10-12T11:46:40.701Z,4.40
2018-10-12T11:49:09.655Z,4.40
2018-10-12T11:51:38.630Z,4.87
2018-10-12T11:54:07.622Z,4.33
2018-10-12T11:56:36.577Z,4.50
2018-10-12T11:59:05.537Z,4.80
2018-10-12T12:01:35.182Z,4.20
2018-10-12T12:04:04.161Z,4.30
2018-10-12T12:06:33.085Z,3.73
2018-10-12T12:09:02.049Z,4.33
2018-10-12T12:11:30.970Z,4.80
2018-10-12T12:14:00.044Z,4.40
2018-10-12T12:16:28.920Z,3.57
2018-10-12T12:18:57.918Z,3.90
2018-10-12T12:21:26.934Z,3.47
2018-10-12T12:23:55.888Z,4.07
2018-10-12T12:26:24.826Z,3.53
2018-10-12T12:28:53.786Z,3.07
2018-10-12T12:31:22.754Z,3.70
2018-10-12T12:33:51.705Z,3.40
2018-10-12T12:36:20.634Z,3.57
2018-10-12T12:38:49.638Z,3.27
2018-10-12T12:41:18.619Z,3.40
2018-10-12T12:43:47.554Z,3.40
2018-10-12T12:46:16.794Z,3.17
2018-10-12T12:48:46.027Z,3.07
2018-10-12T12:51:15.019Z,3.47
2018-10-12T12:53:44.568Z,2.77
2018-10-12T12:56:13.715Z,3.93
2018-10-12T12:58:42.833Z,3.20
2018-10-12T13:01:11.733Z,2.63
2018-10-12T13:03:40.700Z,3.00
2018-10-12T13:06:09.629Z,3.03
2018-10-12T13:08:38.702Z,3.17
2018-10-12T13:11:07.962Z,3.10
2018-10-12T13:13:36.939Z,3.90
2018-10-12T13:16:05.867Z,3.03
2018-10-12T13:18:34.765Z,3.03
2018-10-12T13:21:03.834Z,1.90
2018-10-12T13:23:32.735Z,2.77
2018-10-12T13:26:01.833Z,2.77
2018-10-12T13:28:30.621Z,2.43
2018-10-12T13:30:59.603Z,3.13
2018-10-12T13:33:28.506Z,2.17
2018-10-12T13:35:57.454Z,2.80
2018-10-12T13:38:26.338Z,2.30
2018-10-12T13:40:55.275Z,2.57
2018-10-12T13:43:24.182Z,2.80
2018-10-12T13:45:53.148Z,2.30
2018-10-12T13:48:22.078Z,2.50
2018-10-12T13:50:51.037Z,1.90
2018-10-12T13:53:19.925Z,2.37
2018-10-12T13:55:48.889Z,2.50
2018-10-12T13:58:17.826Z,2.10
2018-10-12T14:00:46.772Z,2.80
2018-10-12T14:03:15.683Z,2.20
2018-10-12T14:05:44.667Z,2.60
2018-10-12T14:08:13.786Z,2.90
2018-10-12T14:10:42.714Z,2.70
2018-10-12T14:13:11.726Z,3.10
2018-10-12T14:15:40.647Z,2.37
2018-10-12T14:18:09.594Z,2.33
2018-10-12T14:20:38.525Z,2.80
2018-10-12T14:23:07.595Z,2.20
2018-10-12T14:25:36.608Z,2.43
2018-10-12T14:28:05.509Z,2.90
2018-10-12T14:30:34.467Z,1.80
2018-10-12T14:33:03.390Z,2.07
2018-10-12T14:35:32.354Z,1.70
2018-10-12T14:38:01.593Z,2.30
2018-10-12T14:40:30.274Z,2.00
2018-10-12T14:42:59.188Z,2.00
2018-10-12T14:45:28.146Z,2.00
2018-10-12T14:47:57.106Z,1.90
2018-10-12T14:50:26.046Z,1.20
2018-10-12T14:52:55.027Z,1.50
2018-10-12T14:55:24.053Z,1.37
2018-10-12T14:57:52.927Z,1.43
2018-10-12T15:00:21.863Z,1.70
2018-10-12T15:02:50.759Z,1.30
2018-10-12T15:05:19.785Z,1.47
2018-10-12T15:07:48.671Z,1.27
2018-10-12T15:10:17.625Z,1.37
2018-10-12T15:12:46.559Z,1.37
2018-10-12T15:15:18.846Z,2.17
2018-10-12T15:17:48.814Z,1.80
2018-10-12T15:20:18.094Z,1.20
2018-10-12T15:22:46.999Z,1.10
2018-10-12T15:25:15.936Z,1.30
2018-10-12T15:27:45.106Z,1.60
2018-10-12T15:30:15.107Z,1.37
2018-10-12T15:32:44.174Z,1.10
2018-10-12T15:35:13.066Z,1.30
2018-10-12T15:37:42.897Z,1.47
2018-10-12T15:40:11.766Z,1.10
2018-10-12T15:42:42.094Z,1.40
2018-10-12T15:45:10.657Z,1.47
2018-10-12T15:47:39.607Z,1.50
2018-10-12T15:50:08.530Z,1.50
2018-10-12T15:52:37.506Z,1.23
2018-10-12T15:55:06.455Z,1.10
2018-10-12T15:57:35.471Z,1.37
2018-10-12T16:00:04.453Z,1.37
2018-10-12T16:02:33.426Z,1.00
2018-10-12T16:05:02.332Z,1.20
2018-10-12T16:07:31.286Z,1.50
2018-10-12T16:10:00.405Z,1.53
2018-10-12T16:12:29.404Z,1.40
2018-10-12T16:14:58.453Z,1.40
2018-10-12T16:17:27.414Z,1.80
2018-10-12T16:19:56.352Z,2.23
2018-10-12T16:22:25.416Z,1.60
2018-10-12T16:25:05.205Z,2.10
2018-10-12T16:27:34.166Z,1.30
2018-10-12T16:30:03.192Z,1.63
2018-10-12T16:32:32.174Z,1.77
2018-10-12T16:35:01.195Z,2.07
2018-10-12T16:37:30.138Z,1.57
2018-10-12T16:39:59.181Z,1.60
2018-10-12T16:42:28.186Z,1.90
2018-10-12T16:44:57.146Z,1.90
2018-10-12T16:47:26.101Z,1.20
2018-10-12T16:49:55.055Z,1.70
2018-10-12T16:52:23.994Z,1.60
2018-10-12T16:54:53.943Z,1.87
2018-10-12T16:57:30.886Z,1.57
2018-10-12T16:59:59.913Z,1.63
2018-10-12T17:02:29.034Z,1.97
2018-10-12T17:04:57.966Z,1.50
2018-10-12T17:07:26.931Z,1.60
2018-10-12T17:09:55.858Z,1.40
2018-10-12T17:12:24.845Z,1.60
2018-10-12T17:14:53.804Z,1.70
2018-10-12T17:17:22.765Z,1.77
2018-10-12T17:19:51.718Z,1.90
2018-10-12T17:22:20.707Z,2.10
2018-10-12T17:24:49.638Z,1.83
2018-10-12T17:27:18.610Z,2.00
2018-10-12T17:29:47.629Z,1.57
2018-10-12T17:32:16.633Z,1.90
2018-10-12T17:34:45.557Z,1.70
2018-10-12T17:37:14.526Z,1.50
2018-10-12T17:39:43.459Z,1.67
2018-10-12T17:42:15.782Z,2.27
2018-10-12T17:44:44.877Z,1.63
2018-10-12T17:47:14.451Z,1.97
2018-10-12T17:49:43.469Z,1.87
2018-10-12T17:52:12.436Z,1.87
2018-10-12T17:54:41.381Z,1.80
2018-10-12T17:57:10.396Z,2.10
2018-10-12T17:59:39.336Z,2.03
2018-10-12T18:02:08.302Z,1.77
2018-10-12T18:04:37.253Z,2.03
2018-10-12T18:07:06.444Z,2.47
2018-10-12T18:09:35.414Z,1.80
2018-10-12T18:12:04.367Z,1.60
2018-10-12T18:14:33.286Z,2.10
2018-10-12T18:17:02.270Z,2.13
2018-10-12T18:19:31.696Z,1.97
2018-10-12T18:22:00.797Z,2.00
2018-10-12T18:24:29.766Z,2.20
2018-10-12T18:26:58.846Z,2.20
2018-10-12T18:29:27.961Z,2.00
2018-10-12T18:31:56.947Z,2.30
2018-10-12T18:34:25.881Z,3.00
2018-10-12T18:36:54.925Z,2.37
2018-10-12T18:39:23.816Z,2.20
2018-10-12T18:41:52.764Z,2.67
2018-10-12T18:44:21.975Z,2.50
2018-10-12T18:46:51.148Z,1.93
2018-10-12T18:49:20.138Z,2.80
2018-10-12T18:51:49.663Z,2.03
2018-10-12T18:54:18.663Z,1.90
2018-10-12T18:56:47.559Z,1.90
2018-10-12T18:59:16.565Z,1.70
2018-10-12T19:01:45.458Z,2.37
2018-10-12T19:04:14.386Z,1.90
2018-10-12T19:06:43.388Z,1.63
2018-10-12T19:09:12.293Z,1.80
2018-10-12T19:11:41.915Z,1.70
2018-10-12T19:14:11.199Z,2.60
2018-10-12T19:16:40.431Z,2.07
2018-10-12T19:19:09.771Z,2.10
2018-10-12T19:21:38.886Z,2.10
2018-10-12T19:24:08.164Z,1.50
2018-10-12T19:26:37.347Z,2.53
2018-10-12T19:29:07.209Z,2.40
2018-10-12T19:31:38.300Z,2.07
2018-10-12T19:34:07.606Z,1.83
2018-10-12T19:36:36.654Z,1.90
2018-10-12T19:39:07.845Z,2.00
2018-10-12T19:41:37.357Z,2.20
2018-10-12T19:44:06.821Z,1.80
2018-10-12T19:46:35.925Z,1.70
2018-10-12T19:49:06.134Z,2.43
2018-10-12T19:51:35.246Z,2.67
2018-10-12T19:54:04.354Z,3.17
2018-10-12T19:56:33.468Z,1.90
2018-10-12T19:59:03.387Z,2.77
2018-10-12T20:01:32.515Z,2.70
2018-10-12T20:04:01.701Z,2.43
2018-10-12T20:06:41.847Z,2.37
2018-10-12T20:09:13.737Z,2.47
2018-10-12T20:11:42.941Z,2.20
2018-10-12T20:14:12.636Z,2.00
2018-10-12T20:16:41.737Z,1.63
2018-10-12T20:19:10.969Z,2.07
2018-10-12T20:21:41.822Z,2.50
2018-10-12T20:24:11.442Z,2.27
2018-10-12T20:26:40.611Z,1.47
2018-10-12T20:29:10.236Z,2.17
2018-10-12T20:31:39.487Z,2.10
2018-10-12T20:34:08.768Z,1.90
2018-10-12T20:36:37.924Z,2.00
2018-10-12T20:39:09.310Z,2.03
2018-10-12T20:41:38.606Z,2.33
2018-10-12T20:44:07.897Z,1.93
2018-10-12T20:46:37.529Z,2.10
2018-10-12T20:49:06.709Z,2.10
2018-10-12T20:51:35.912Z,2.87
2018-10-12T20:54:05.056Z,1.73
2018-10-12T20:56:34.161Z,1.90
2018-10-12T20:59:03.397Z,2.20
2018-10-12T21:01:32.544Z,2.50
2018-10-12T21:04:01.895Z,2.13
2018-10-12T21:06:31.266Z,2.00
2018-10-12T21:09:00.535Z,2.13
2018-10-12T21:11:29.727Z,1.67
2018-10-12T21:13:58.864Z,1.83
2018-10-12T21:16:27.994Z,2.43
2018-10-12T21:18:57.257Z,2.37
2018-10-12T21:21:26.483Z,2.33
2018-10-12T21:23:55.741Z,1.87
2018-10-12T21:26:24.846Z,2.00
2018-10-12T21:28:54.117Z,2.10
2018-10-12T21:31:23.227Z,2.30
2018-10-12T21:33:52.386Z,1.87
2018-10-12T21:36:21.478Z,2.00
2018-10-12T21:38:50.553Z,2.10
2018-10-12T21:41:23.254Z,2.20
2018-10-12T21:43:52.354Z,2.70
2018-10-12T21:46:21.481Z,2.10
2018-10-12T21:48:50.597Z,1.97
2018-10-12T21:51:19.756Z,2.87
2018-10-12T21:53:51.430Z,2.07
2018-10-12T21:56:20.729Z,2.50
2018-10-12T21:58:52.698Z,2.30
2018-10-12T22:01:21.849Z,2.37
2018-10-12T22:03:50.959Z,2.23
2018-10-12T22:06:20.086Z,2.27
2018-10-12T22:08:53.268Z,2.57
2018-10-12T22:11:22.428Z,2.17
2018-10-12T22:13:51.602Z,2.17
2018-10-12T22:16:20.677Z,2.07
2018-10-12T22:18:49.777Z,2.83
2018-10-12T22:21:18.895Z,2.23
2018-10-12T22:23:48.027Z,3.00
2018-10-12T22:26:23.428Z,2.37
2018-10-12T22:28:52.537Z,2.63
2018-10-12T22:31:21.662Z,2.67
2018-10-12T22:33:50.757Z,2.67
2018-10-12T22:36:19.912Z,3.10
2018-10-12T22:38:49.009Z,2.43
2018-10-12T22:41:18.103Z,2.30
2018-10-12T22:43:47.289Z,2.80
2018-10-12T22:46:16.441Z,2.13
2018-10-12T22:48:45.490Z,3.80
2018-10-12T22:51:14.608Z,2.67
2018-10-12T22:53:43.776Z,2.10
2018-10-12T22:56:12.944Z,2.40
2018-10-12T22:58:42.109Z,1.97
2018-10-12T23:01:11.263Z,2.13
2018-10-12T23:03:40.397Z,2.57
2018-10-12T23:06:09.521Z,1.87
2018-10-12T23:08:38.635Z,2.20
2018-10-12T23:11:07.845Z,2.40
2018-10-12T23:13:36.920Z,2.57
2018-10-12T23:16:06.086Z,1.90
2018-10-12T23:18:35.188Z,2.43
2018-10-12T23:21:04.304Z,2.40
2018-10-12T23:23:33.387Z,2.73
2018-10-12T23:26:02.489Z,2.40
2018-10-12T23:28:31.595Z,2.00
2018-10-12T23:31:03.709Z,2.00
2018-10-12T23:33:43.670Z,2.17
2018-10-12T23:36:12.825Z,2.60
2018-10-12T23:38:41.903Z,2.30
2018-10-12T23:41:10.990Z,2.40
2018-10-12T23:43:40.130Z,3.27
2018-10-12T23:46:09.299Z,2.10
2018-10-12T23:48:38.457Z,2.57
2018-10-12T23:51:08.374Z,2.83
2018-10-12T23:53:37.555Z,2.30
2018-10-12T23:56:07.464Z,2.30
2018-10-12T23:58:36.570Z,2.47
